sensor_id;sensor_type;location;lat;lon;timestamp;temperature;humidity
12901;DHT22;6518;50.930;5.344;2023-12-14T00:02:23;8.60;99.90
12901;DHT22;6518;50.930;5.344;2023-12-14T00:04:50;8.60;99.90
12901;DHT22;6518;50.930;5.344;2023-12-14T00:07:17;8.60;99.90
12901;DHT22;6518;50.930;5.344;2023-12-14T00:09:44;8.70;99.90
12901;DHT22;6518;50.930;5.344;2023-12-14T00:12:12;8.70;99.90
12901;DHT22;6518;50.930;5.344;2023-12-14T00:14:39;8.70;99.90
12901;DHT22;6518;50.930;5.344;2023-12-14T00:17:07;8.70;99.90
12901;DHT22;6518;50.930;5.344;2023-12-14T00:19:34;8.70;99.90
12901;DHT22;6518;50.930;5.344;2023-12-14T00:22:01;8.80;99.90
12901;DHT22;6518;50.930;5.344;2023-12-14T00:24:28;8.80;99.90
12901;DHT22;6518;50.930;5.344;2023-12-14T00:26:55;8.80;99.90
12901;DHT22;6518;50.930;5.344;2023-12-14T00:29:22;8.80;99.90
12901;DHT22;6518;50.930;5.344;2023-12-14T00:31:51;8.80;99.90
12901;DHT22;6518;50.930;5.344;2023-12-14T00:34:19;8.80;99.90
12901;DHT22;6518;50.930;5.344;2023-12-14T00:36:46;8.80;99.90
12901;DHT22;6518;50.930;5.344;2023-12-14T00:39:14;8.80;99.90
12901;DHT22;6518;50.930;5.344;2023-12-14T00:41:41;8.80;99.90
12901;DHT22;6518;50.930;5.344;2023-12-14T00:44:08;8.80;99.90
12901;DHT22;6518;50.930;5.344;2023-12-14T00:46:36;8.80;99.90
12901;DHT22;6518;50.930;5.344;2023-12-14T00:49:03;8.80;99.90
12901;DHT22;6518;50.930;5.344;2023-12-14T00:51:31;8.80;99.90
12901;DHT22;6518;50.930;5.344;2023-12-14T00:53:58;8.80;99.90
12901;DHT22;6518;50.930;5.344;2023-12-14T00:56:25;8.80;99.90
12901;DHT22;6518;50.930;5.344;2023-12-14T00:58:52;8.80;99.90
12901;DHT22;6518;50.930;5.344;2023-12-14T01:01:19;8.80;99.90
12901;DHT22;6518;50.930;5.344;2023-12-14T01:03:46;8.80;99.90
12901;DHT22;6518;50.930;5.344;2023-12-14T01:06:13;8.80;99.90
12901;DHT22;6518;50.930;5.344;2023-12-14T01:08:41;8.80;99.90
12901;DHT22;6518;50.930;5.344;2023-12-14T01:11:08;8.80;99.90
12901;DHT22;6518;50.930;5.344;2023-12-14T01:13:36;8.80;99.90
12901;DHT22;6518;50.930;5.344;2023-12-14T01:16:03;8.80;99.90
12901;DHT22;6518;50.930;5.344;2023-12-14T01:18:30;8.80;99.90
12901;DHT22;6518;50.930;5.344;2023-12-14T01:20:57;8.80;99.90
12901;DHT22;6518;50.930;5.344;2023-12-14T01:23:24;8.70;99.90
12901;DHT22;6518;50.930;5.344;2023-12-14T01:25:52;8.80;99.90
12901;DHT22;6518;50.930;5.344;2023-12-14T01:28:19;8.70;99.90
12901;DHT22;6518;50.930;5.344;2023-12-14T01:30:45;8.80;99.90
12901;DHT22;6518;50.930;5.344;2023-12-14T01:33:12;8.80;99.90
12901;DHT22;6518;50.930;5.344;2023-12-14T01:35:39;8.80;99.90
12901;DHT22;6518;50.930;5.344;2023-12-14T01:38:05;8.80;99.90
12901;DHT22;6518;50.930;5.344;2023-12-14T01:40:32;8.80;99.90
12901;DHT22;6518;50.930;5.344;2023-12-14T01:43:10;8.80;99.90
12901;DHT22;6518;50.930;5.344;2023-12-14T01:45:37;8.80;99.90
12901;DHT22;6518;50.930;5.344;2023-12-14T01:48:04;8.80;99.90
12901;DHT22;6518;50.930;5.344;2023-12-14T01:50:31;8.80;99.90
12901;DHT22;6518;50.930;5.344;2023-12-14T01:52:58;8.80;99.90
12901;DHT22;6518;50.930;5.344;2023-12-14T01:55:25;8.80;99.90
12901;DHT22;6518;50.930;5.344;2023-12-14T01:57:52;8.80;99.90
12901;DHT22;6518;50.930;5.344;2023-12-14T02:00:26;8.80;99.90
12901;DHT22;6518;50.930;5.344;2023-12-14T02:02:56;8.80;99.90
12901;DHT22;6518;50.930;5.344;2023-12-14T02:05:23;8.80;99.90
12901;DHT22;6518;50.930;5.344;2023-12-14T02:07:50;8.80;99.90
12901;DHT22;6518;50.930;5.344;2023-12-14T02:10:17;8.80;99.90
12901;DHT22;6518;50.930;5.344;2023-12-14T02:12:44;8.80;99.90
12901;DHT22;6518;50.930;5.344;2023-12-14T02:15:12;8.80;99.90
12901;DHT22;6518;50.930;5.344;2023-12-14T02:17:40;8.80;99.90
12901;DHT22;6518;50.930;5.344;2023-12-14T02:20:07;8.80;99.90
12901;DHT22;6518;50.930;5.344;2023-12-14T02:22:48;8.80;99.90
12901;DHT22;6518;50.930;5.344;2023-12-14T02:25:15;8.70;99.90
12901;DHT22;6518;50.930;5.344;2023-12-14T02:27:45;8.70;99.90
12901;DHT22;6518;50.930;5.344;2023-12-14T02:30:13;8.60;99.90
12901;DHT22;6518;50.930;5.344;2023-12-14T02:32:40;8.60;99.90
12901;DHT22;6518;50.930;5.344;2023-12-14T02:35:07;8.50;99.90
12901;DHT22;6518;50.930;5.344;2023-12-14T02:37:37;8.40;99.90
12901;DHT22;6518;50.930;5.344;2023-12-14T02:40:07;8.30;99.90
12901;DHT22;6518;50.930;5.344;2023-12-14T02:42:34;8.30;99.90
12901;DHT22;6518;50.930;5.344;2023-12-14T02:45:01;8.30;99.90
12901;DHT22;6518;50.930;5.344;2023-12-14T02:47:28;8.20;99.90
12901;DHT22;6518;50.930;5.344;2023-12-14T02:49:55;8.20;99.90
12901;DHT22;6518;50.930;5.344;2023-12-14T02:52:22;8.10;99.90
12901;DHT22;6518;50.930;5.344;2023-12-14T02:54:50;8.10;99.90
12901;DHT22;6518;50.930;5.344;2023-12-14T02:57:17;8.00;99.90
12901;DHT22;6518;50.930;5.344;2023-12-14T02:59:44;8.00;99.90
12901;DHT22;6518;50.930;5.344;2023-12-14T03:02:11;8.00;99.90
12901;DHT22;6518;50.930;5.344;2023-12-14T03:04:39;8.10;99.90
12901;DHT22;6518;50.930;5.344;2023-12-14T03:07:06;8.10;99.90
12901;DHT22;6518;50.930;5.344;2023-12-14T03:09:33;8.10;99.90
12901;DHT22;6518;50.930;5.344;2023-12-14T03:12:02;8.00;99.90
12901;DHT22;6518;50.930;5.344;2023-12-14T03:14:32;8.00;99.90
12901;DHT22;6518;50.930;5.344;2023-12-14T03:17:00;7.90;99.90
12901;DHT22;6518;50.930;5.344;2023-12-14T03:19:27;7.90;99.90
12901;DHT22;6518;50.930;5.344;2023-12-14T03:21:54;7.80;99.90
12901;DHT22;6518;50.930;5.344;2023-12-14T03:24:23;7.90;99.90
12901;DHT22;6518;50.930;5.344;2023-12-14T03:26:51;7.80;99.90
12901;DHT22;6518;50.930;5.344;2023-12-14T03:29:24;7.80;99.90
12901;DHT22;6518;50.930;5.344;2023-12-14T03:31:53;7.80;99.90
12901;DHT22;6518;50.930;5.344;2023-12-14T03:34:21;7.80;99.90
12901;DHT22;6518;50.930;5.344;2023-12-14T03:36:48;7.80;99.90
12901;DHT22;6518;50.930;5.344;2023-12-14T03:39:15;7.70;99.90
12901;DHT22;6518;50.930;5.344;2023-12-14T03:41:43;7.70;99.90
12901;DHT22;6518;50.930;5.344;2023-12-14T03:44:10;7.70;99.90
12901;DHT22;6518;50.930;5.344;2023-12-14T03:46:38;7.70;99.90
12901;DHT22;6518;50.930;5.344;2023-12-14T03:49:05;7.80;99.90
12901;DHT22;6518;50.930;5.344;2023-12-14T03:51:32;7.70;99.90
12901;DHT22;6518;50.930;5.344;2023-12-14T03:53:59;7.60;99.90
12901;DHT22;6518;50.930;5.344;2023-12-14T03:56:26;7.60;99.90
12901;DHT22;6518;50.930;5.344;2023-12-14T03:58:53;7.70;99.90
12901;DHT22;6518;50.930;5.344;2023-12-14T04:01:22;7.60;99.90
12901;DHT22;6518;50.930;5.344;2023-12-14T04:03:51;7.60;99.90
12901;DHT22;6518;50.930;5.344;2023-12-14T04:06:18;7.60;99.90
12901;DHT22;6518;50.930;5.344;2023-12-14T04:08:46;7.50;99.90
12901;DHT22;6518;50.930;5.344;2023-12-14T04:11:14;7.50;99.90
12901;DHT22;6518;50.930;5.344;2023-12-14T04:13:41;7.50;99.90
12901;DHT22;6518;50.930;5.344;2023-12-14T04:16:08;7.50;99.90
12901;DHT22;6518;50.930;5.344;2023-12-14T04:18:35;7.50;99.90
12901;DHT22;6518;50.930;5.344;2023-12-14T04:21:05;7.40;99.90
12901;DHT22;6518;50.930;5.344;2023-12-14T04:23:32;7.40;99.90
12901;DHT22;6518;50.930;5.344;2023-12-14T04:25:59;7.40;99.90
12901;DHT22;6518;50.930;5.344;2023-12-14T04:28:26;7.40;99.90
12901;DHT22;6518;50.930;5.344;2023-12-14T04:30:53;7.40;99.90
12901;DHT22;6518;50.930;5.344;2023-12-14T04:33:19;7.30;99.90
12901;DHT22;6518;50.930;5.344;2023-12-14T04:35:46;7.30;99.90
12901;DHT22;6518;50.930;5.344;2023-12-14T04:38:19;7.30;99.90
12901;DHT22;6518;50.930;5.344;2023-12-14T04:40:47;7.20;99.90
12901;DHT22;6518;50.930;5.344;2023-12-14T04:43:14;7.30;99.90
12901;DHT22;6518;50.930;5.344;2023-12-14T04:45:41;7.20;99.90
12901;DHT22;6518;50.930;5.344;2023-12-14T04:48:08;7.20;99.90
12901;DHT22;6518;50.930;5.344;2023-12-14T04:50:35;7.20;99.90
12901;DHT22;6518;50.930;5.344;2023-12-14T04:53:02;7.20;99.90
12901;DHT22;6518;50.930;5.344;2023-12-14T04:55:31;7.20;99.90
12901;DHT22;6518;50.930;5.344;2023-12-14T04:57:58;7.20;99.90
12901;DHT22;6518;50.930;5.344;2023-12-14T05:00:25;7.20;99.90
12901;DHT22;6518;50.930;5.344;2023-12-14T05:02:52;7.20;99.90
12901;DHT22;6518;50.930;5.344;2023-12-14T05:05:19;7.20;99.90
12901;DHT22;6518;50.930;5.344;2023-12-14T05:07:46;7.10;99.90
12901;DHT22;6518;50.930;5.344;2023-12-14T05:10:13;7.00;99.90
12901;DHT22;6518;50.930;5.344;2023-12-14T05:12:41;7.00;99.90
12901;DHT22;6518;50.930;5.344;2023-12-14T05:15:09;6.90;99.90
12901;DHT22;6518;50.930;5.344;2023-12-14T05:17:36;6.90;99.90
12901;DHT22;6518;50.930;5.344;2023-12-14T05:20:04;6.90;99.90
12901;DHT22;6518;50.930;5.344;2023-12-14T05:22:31;6.90;99.90
12901;DHT22;6518;50.930;5.344;2023-12-14T05:24:58;6.90;99.90
12901;DHT22;6518;50.930;5.344;2023-12-14T05:27:25;7.00;99.90
12901;DHT22;6518;50.930;5.344;2023-12-14T05:29:53;7.00;99.90
12901;DHT22;6518;50.930;5.344;2023-12-14T05:32:20;7.00;99.90
12901;DHT22;6518;50.930;5.344;2023-12-14T05:34:47;7.00;99.90
12901;DHT22;6518;50.930;5.344;2023-12-14T05:37:14;7.10;99.90
12901;DHT22;6518;50.930;5.344;2023-12-14T05:39:41;7.10;99.90
12901;DHT22;6518;50.930;5.344;2023-12-14T05:42:09;7.00;99.90
12901;DHT22;6518;50.930;5.344;2023-12-14T05:44:36;7.00;99.90
12901;DHT22;6518;50.930;5.344;2023-12-14T05:47:05;7.00;99.90
12901;DHT22;6518;50.930;5.344;2023-12-14T05:49:32;7.00;99.90
12901;DHT22;6518;50.930;5.344;2023-12-14T05:51:59;6.90;99.90
12901;DHT22;6518;50.930;5.344;2023-12-14T05:54:26;6.90;99.90
12901;DHT22;6518;50.930;5.344;2023-12-14T05:56:53;6.80;99.90
12901;DHT22;6518;50.930;5.344;2023-12-14T05:59:20;6.80;99.90
12901;DHT22;6518;50.930;5.344;2023-12-14T06:01:47;6.90;99.90
12901;DHT22;6518;50.930;5.344;2023-12-14T06:04:15;6.90;99.90
12901;DHT22;6518;50.930;5.344;2023-12-14T06:06:42;6.90;99.90
12901;DHT22;6518;50.930;5.344;2023-12-14T06:09:09;6.90;99.90
12901;DHT22;6518;50.930;5.344;2023-12-14T06:11:36;6.90;99.90
12901;DHT22;6518;50.930;5.344;2023-12-14T06:14:03;6.90;99.90
12901;DHT22;6518;50.930;5.344;2023-12-14T06:16:30;6.80;99.90
12901;DHT22;6518;50.930;5.344;2023-12-14T06:18:57;6.70;99.90
12901;DHT22;6518;50.930;5.344;2023-12-14T06:21:25;6.70;99.90
12901;DHT22;6518;50.930;5.344;2023-12-14T06:23:54;6.70;99.90
12901;DHT22;6518;50.930;5.344;2023-12-14T06:26:21;6.70;99.90
12901;DHT22;6518;50.930;5.344;2023-12-14T06:28:48;6.70;99.90
12901;DHT22;6518;50.930;5.344;2023-12-14T06:31:15;6.70;99.90
12901;DHT22;6518;50.930;5.344;2023-12-14T06:33:42;6.70;99.90
12901;DHT22;6518;50.930;5.344;2023-12-14T06:36:09;6.70;99.90
12901;DHT22;6518;50.930;5.344;2023-12-14T06:38:39;6.70;99.90
12901;DHT22;6518;50.930;5.344;2023-12-14T06:41:06;6.80;99.90
12901;DHT22;6518;50.930;5.344;2023-12-14T06:43:35;6.80;99.90
12901;DHT22;6518;50.930;5.344;2023-12-14T06:46:02;6.70;99.90
12901;DHT22;6518;50.930;5.344;2023-12-14T06:48:30;6.70;99.90
12901;DHT22;6518;50.930;5.344;2023-12-14T06:50:57;6.80;99.90
12901;DHT22;6518;50.930;5.344;2023-12-14T06:53:24;6.70;99.90
12901;DHT22;6518;50.930;5.344;2023-12-14T06:55:52;6.70;99.90
12901;DHT22;6518;50.930;5.344;2023-12-14T06:58:19;6.70;99.90
12901;DHT22;6518;50.930;5.344;2023-12-14T07:00:46;6.70;99.90
12901;DHT22;6518;50.930;5.344;2023-12-14T07:03:13;6.70;99.90
12901;DHT22;6518;50.930;5.344;2023-12-14T07:05:41;6.60;99.90
12901;DHT22;6518;50.930;5.344;2023-12-14T07:08:08;6.60;99.90
12901;DHT22;6518;50.930;5.344;2023-12-14T07:10:35;6.60;99.90
12901;DHT22;6518;50.930;5.344;2023-12-14T07:13:03;6.60;99.90
12901;DHT22;6518;50.930;5.344;2023-12-14T07:15:30;6.60;99.90
12901;DHT22;6518;50.930;5.344;2023-12-14T07:17:57;6.60;99.90
12901;DHT22;6518;50.930;5.344;2023-12-14T07:20:24;6.60;99.90
12901;DHT22;6518;50.930;5.344;2023-12-14T07:22:51;6.60;99.90
12901;DHT22;6518;50.930;5.344;2023-12-14T07:25:18;6.70;99.90
12901;DHT22;6518;50.930;5.344;2023-12-14T07:27:45;6.70;99.90
12901;DHT22;6518;50.930;5.344;2023-12-14T07:30:14;6.60;99.90
12901;DHT22;6518;50.930;5.344;2023-12-14T07:32:41;6.60;99.90
12901;DHT22;6518;50.930;5.344;2023-12-14T07:35:08;6.60;99.90
12901;DHT22;6518;50.930;5.344;2023-12-14T07:37:36;6.70;99.90
12901;DHT22;6518;50.930;5.344;2023-12-14T07:40:03;6.70;99.90
12901;DHT22;6518;50.930;5.344;2023-12-14T07:42:30;6.70;99.90
12901;DHT22;6518;50.930;5.344;2023-12-14T07:44:57;6.80;99.90
12901;DHT22;6518;50.930;5.344;2023-12-14T07:47:26;6.80;99.90
12901;DHT22;6518;50.930;5.344;2023-12-14T07:49:53;6.80;99.90
12901;DHT22;6518;50.930;5.344;2023-12-14T07:52:20;6.70;99.90
12901;DHT22;6518;50.930;5.344;2023-12-14T07:54:47;6.70;99.90
12901;DHT22;6518;50.930;5.344;2023-12-14T07:57:14;6.70;99.90
12901;DHT22;6518;50.930;5.344;2023-12-14T07:59:41;6.70;99.90
12901;DHT22;6518;50.930;5.344;2023-12-14T08:02:07;6.70;99.90
12901;DHT22;6518;50.930;5.344;2023-12-14T08:04:36;6.70;99.90
12901;DHT22;6518;50.930;5.344;2023-12-14T08:07:03;6.80;99.90
12901;DHT22;6518;50.930;5.344;2023-12-14T08:09:30;6.80;99.90
12901;DHT22;6518;50.930;5.344;2023-12-14T08:11:57;6.80;99.90
12901;DHT22;6518;50.930;5.344;2023-12-14T08:14:23;6.80;99.90
12901;DHT22;6518;50.930;5.344;2023-12-14T08:16:50;6.70;99.90
12901;DHT22;6518;50.930;5.344;2023-12-14T08:19:17;6.70;99.90
12901;DHT22;6518;50.930;5.344;2023-12-14T08:21:46;6.70;99.90
12901;DHT22;6518;50.930;5.344;2023-12-14T08:24:13;6.70;99.90
12901;DHT22;6518;50.930;5.344;2023-12-14T08:26:40;6.60;99.90
12901;DHT22;6518;50.930;5.344;2023-12-14T08:29:07;6.60;99.90
12901;DHT22;6518;50.930;5.344;2023-12-14T08:31:34;6.60;99.90
12901;DHT22;6518;50.930;5.344;2023-12-14T08:34:01;6.60;99.90
12901;DHT22;6518;50.930;5.344;2023-12-14T08:36:29;6.60;99.90
12901;DHT22;6518;50.930;5.344;2023-12-14T08:38:58;6.50;99.90
12901;DHT22;6518;50.930;5.344;2023-12-14T08:41:25;6.50;99.90
12901;DHT22;6518;50.930;5.344;2023-12-14T08:43:52;6.50;99.90
12901;DHT22;6518;50.930;5.344;2023-12-14T08:46:19;6.50;99.90
12901;DHT22;6518;50.930;5.344;2023-12-14T08:48:46;6.60;99.90
12901;DHT22;6518;50.930;5.344;2023-12-14T08:51:14;6.60;99.90
12901;DHT22;6518;50.930;5.344;2023-12-14T08:53:41;6.60;99.90
12901;DHT22;6518;50.930;5.344;2023-12-14T08:56:10;6.70;99.90
12901;DHT22;6518;50.930;5.344;2023-12-14T08:58:37;6.70;99.90
12901;DHT22;6518;50.930;5.344;2023-12-14T09:01:04;6.60;99.90
12901;DHT22;6518;50.930;5.344;2023-12-14T09:03:31;6.60;99.90
12901;DHT22;6518;50.930;5.344;2023-12-14T09:05:58;6.60;99.90
12901;DHT22;6518;50.930;5.344;2023-12-14T09:08:27;6.70;99.90
12901;DHT22;6518;50.930;5.344;2023-12-14T09:10:54;6.60;99.90
12901;DHT22;6518;50.930;5.344;2023-12-14T09:13:22;6.60;99.90
12901;DHT22;6518;50.930;5.344;2023-12-14T09:15:51;6.60;99.90
12901;DHT22;6518;50.930;5.344;2023-12-14T09:18:19;6.60;99.90
12901;DHT22;6518;50.930;5.344;2023-12-14T09:20:48;6.60;99.90
12901;DHT22;6518;50.930;5.344;2023-12-14T09:23:16;6.60;99.90
12901;DHT22;6518;50.930;5.344;2023-12-14T09:25:44;6.60;99.90
12901;DHT22;6518;50.930;5.344;2023-12-14T09:28:11;6.70;99.90
12901;DHT22;6518;50.930;5.344;2023-12-14T09:30:39;6.90;99.90
12901;DHT22;6518;50.930;5.344;2023-12-14T09:33:06;7.00;99.90
12901;DHT22;6518;50.930;5.344;2023-12-14T09:35:34;7.10;99.90
12901;DHT22;6518;50.930;5.344;2023-12-14T09:38:02;7.00;99.90
12901;DHT22;6518;50.930;5.344;2023-12-14T09:40:29;6.90;99.90
12901;DHT22;6518;50.930;5.344;2023-12-14T09:42:56;7.00;99.90
12901;DHT22;6518;50.930;5.344;2023-12-14T09:45:27;7.00;99.90
12901;DHT22;6518;50.930;5.344;2023-12-14T09:47:56;7.00;99.90
12901;DHT22;6518;50.930;5.344;2023-12-14T09:50:23;7.00;99.90
12901;DHT22;6518;50.930;5.344;2023-12-14T09:52:50;6.90;99.90
12901;DHT22;6518;50.930;5.344;2023-12-14T09:55:17;7.10;99.90
12901;DHT22;6518;50.930;5.344;2023-12-14T09:57:44;6.90;99.90
12901;DHT22;6518;50.930;5.344;2023-12-14T10:00:12;6.80;99.90
12901;DHT22;6518;50.930;5.344;2023-12-14T10:02:41;6.80;99.90
12901;DHT22;6518;50.930;5.344;2023-12-14T10:05:10;6.80;99.90
12901;DHT22;6518;50.930;5.344;2023-12-14T10:07:41;6.80;99.90
12901;DHT22;6518;50.930;5.344;2023-12-14T10:10:10;6.90;99.90
12901;DHT22;6518;50.930;5.344;2023-12-14T10:12:50;6.90;99.90
12901;DHT22;6518;50.930;5.344;2023-12-14T10:15:18;6.80;99.90
12901;DHT22;6518;50.930;5.344;2023-12-14T10:17:45;6.90;99.90
12901;DHT22;6518;50.930;5.344;2023-12-14T10:20:20;6.90;99.90
12901;DHT22;6518;50.930;5.344;2023-12-14T10:22:49;6.90;99.90
12901;DHT22;6518;50.930;5.344;2023-12-14T10:25:18;6.90;99.90
12901;DHT22;6518;50.930;5.344;2023-12-14T10:27:46;6.90;99.90
12901;DHT22;6518;50.930;5.344;2023-12-14T10:30:14;6.90;99.90
12901;DHT22;6518;50.930;5.344;2023-12-14T10:32:42;6.80;99.90
12901;DHT22;6518;50.930;5.344;2023-12-14T10:35:09;6.80;99.90
12901;DHT22;6518;50.930;5.344;2023-12-14T10:37:39;6.80;99.90
12901;DHT22;6518;50.930;5.344;2023-12-14T10:40:07;6.80;99.90
12901;DHT22;6518;50.930;5.344;2023-12-14T10:42:36;6.90;99.90
12901;DHT22;6518;50.930;5.344;2023-12-14T10:45:04;6.90;99.90
12901;DHT22;6518;50.930;5.344;2023-12-14T10:47:32;6.90;99.90
12901;DHT22;6518;50.930;5.344;2023-12-14T10:50:00;6.90;99.90
12901;DHT22;6518;50.930;5.344;2023-12-14T10:52:28;7.00;99.90
12901;DHT22;6518;50.930;5.344;2023-12-14T10:55:02;7.10;99.90
12901;DHT22;6518;50.930;5.344;2023-12-14T10:57:34;7.10;99.90
12901;DHT22;6518;50.930;5.344;2023-12-14T11:00:02;7.20;99.90
12901;DHT22;6518;50.930;5.344;2023-12-14T11:02:32;7.20;99.90
12901;DHT22;6518;50.930;5.344;2023-12-14T11:05:05;7.30;99.90
12901;DHT22;6518;50.930;5.344;2023-12-14T11:07:49;7.40;99.90
12901;DHT22;6518;50.930;5.344;2023-12-14T11:10:22;7.40;99.90
12901;DHT22;6518;50.930;5.344;2023-12-14T11:12:56;7.40;99.90
12901;DHT22;6518;50.930;5.344;2023-12-14T11:15:23;7.40;99.90
12901;DHT22;6518;50.930;5.344;2023-12-14T11:18:25;7.50;99.90
12901;DHT22;6518;50.930;5.344;2023-12-14T11:20:54;7.40;99.90
12901;DHT22;6518;50.930;5.344;2023-12-14T11:23:31;7.50;99.90
12901;DHT22;6518;50.930;5.344;2023-12-14T11:26:03;7.40;99.90
12901;DHT22;6518;50.930;5.344;2023-12-14T11:28:31;7.40;99.90
12901;DHT22;6518;50.930;5.344;2023-12-14T11:30:58;7.40;99.90
12901;DHT22;6518;50.930;5.344;2023-12-14T11:33:26;7.40;99.90
12901;DHT22;6518;50.930;5.344;2023-12-14T11:35:54;7.40;99.90
12901;DHT22;6518;50.930;5.344;2023-12-14T11:38:23;7.50;99.90
12901;DHT22;6518;50.930;5.344;2023-12-14T11:40:51;7.50;99.90
12901;DHT22;6518;50.930;5.344;2023-12-14T11:43:19;7.40;99.90
12901;DHT22;6518;50.930;5.344;2023-12-14T11:45:48;7.50;99.90
12901;DHT22;6518;50.930;5.344;2023-12-14T11:48:16;7.40;99.90
12901;DHT22;6518;50.930;5.344;2023-12-14T11:50:44;7.30;99.90
12901;DHT22;6518;50.930;5.344;2023-12-14T11:53:11;7.20;99.90
12901;DHT22;6518;50.930;5.344;2023-12-14T11:55:40;7.30;99.90
12901;DHT22;6518;50.930;5.344;2023-12-14T11:58:08;7.30;99.90
12901;DHT22;6518;50.930;5.344;2023-12-14T12:00:36;7.30;99.90
12901;DHT22;6518;50.930;5.344;2023-12-14T12:03:09;7.30;99.90
12901;DHT22;6518;50.930;5.344;2023-12-14T12:05:37;7.40;99.90
12901;DHT22;6518;50.930;5.344;2023-12-14T12:08:04;7.40;99.90
12901;DHT22;6518;50.930;5.344;2023-12-14T12:10:32;7.30;99.90
12901;DHT22;6518;50.930;5.344;2023-12-14T12:13:00;7.20;99.90
12901;DHT22;6518;50.930;5.344;2023-12-14T12:15:27;7.20;99.90
12901;DHT22;6518;50.930;5.344;2023-12-14T12:17:56;7.30;99.90
12901;DHT22;6518;50.930;5.344;2023-12-14T12:20:24;7.20;99.90
12901;DHT22;6518;50.930;5.344;2023-12-14T12:22:52;7.10;99.90
12901;DHT22;6518;50.930;5.344;2023-12-14T12:25:19;7.10;99.90
12901;DHT22;6518;50.930;5.344;2023-12-14T12:27:46;7.00;99.90
12901;DHT22;6518;50.930;5.344;2023-12-14T12:30:13;6.90;99.90
12901;DHT22;6518;50.930;5.344;2023-12-14T12:32:41;6.90;99.90
12901;DHT22;6518;50.930;5.344;2023-12-14T12:35:10;7.00;99.90
12901;DHT22;6518;50.930;5.344;2023-12-14T12:37:37;7.10;99.90
12901;DHT22;6518;50.930;5.344;2023-12-14T12:40:05;7.20;99.90
12901;DHT22;6518;50.930;5.344;2023-12-14T12:42:33;7.20;99.90
12901;DHT22;6518;50.930;5.344;2023-12-14T12:45:00;7.20;99.90
12901;DHT22;6518;50.930;5.344;2023-12-14T12:47:27;7.30;99.90
12901;DHT22;6518;50.930;5.344;2023-12-14T12:49:55;7.30;99.90
12901;DHT22;6518;50.930;5.344;2023-12-14T12:52:23;7.30;99.90
12901;DHT22;6518;50.930;5.344;2023-12-14T12:54:51;7.30;99.90
12901;DHT22;6518;50.930;5.344;2023-12-14T12:57:17;7.30;99.90
12901;DHT22;6518;50.930;5.344;2023-12-14T12:59:44;7.40;99.90
12901;DHT22;6518;50.930;5.344;2023-12-14T13:02:11;7.40;99.90
12901;DHT22;6518;50.930;5.344;2023-12-14T13:04:39;7.30;99.90
12901;DHT22;6518;50.930;5.344;2023-12-14T13:07:06;7.20;99.90
12901;DHT22;6518;50.930;5.344;2023-12-14T13:09:34;7.20;99.90
12901;DHT22;6518;50.930;5.344;2023-12-14T13:12:03;7.20;99.90
12901;DHT22;6518;50.930;5.344;2023-12-14T13:14:30;7.20;99.90
12901;DHT22;6518;50.930;5.344;2023-12-14T13:16:58;7.20;99.90
12901;DHT22;6518;50.930;5.344;2023-12-14T13:19:25;7.30;99.90
12901;DHT22;6518;50.930;5.344;2023-12-14T13:21:54;7.20;99.90
12901;DHT22;6518;50.930;5.344;2023-12-14T13:24:23;7.20;99.90
12901;DHT22;6518;50.930;5.344;2023-12-14T13:26:52;7.20;99.90
12901;DHT22;6518;50.930;5.344;2023-12-14T13:29:19;7.10;99.90
12901;DHT22;6518;50.930;5.344;2023-12-14T13:31:47;7.10;99.90
12901;DHT22;6518;50.930;5.344;2023-12-14T13:34:17;7.20;99.90
12901;DHT22;6518;50.930;5.344;2023-12-14T13:36:45;7.20;99.90
12901;DHT22;6518;50.930;5.344;2023-12-14T13:39:12;7.20;99.90
12901;DHT22;6518;50.930;5.344;2023-12-14T13:41:42;7.20;99.90
12901;DHT22;6518;50.930;5.344;2023-12-14T13:44:11;7.20;99.90
12901;DHT22;6518;50.930;5.344;2023-12-14T13:46:38;7.30;99.90
12901;DHT22;6518;50.930;5.344;2023-12-14T13:49:05;7.30;99.90
12901;DHT22;6518;50.930;5.344;2023-12-14T13:51:32;7.30;99.90
12901;DHT22;6518;50.930;5.344;2023-12-14T13:53:59;7.30;99.90
12901;DHT22;6518;50.930;5.344;2023-12-14T13:56:26;7.40;99.90
12901;DHT22;6518;50.930;5.344;2023-12-14T13:58:53;7.40;99.90
12901;DHT22;6518;50.930;5.344;2023-12-14T14:01:22;7.40;99.90
12901;DHT22;6518;50.930;5.344;2023-12-14T14:03:49;7.40;99.90
12901;DHT22;6518;50.930;5.344;2023-12-14T14:06:16;7.30;99.90
12901;DHT22;6518;50.930;5.344;2023-12-14T14:08:42;7.20;99.90
12901;DHT22;6518;50.930;5.344;2023-12-14T14:11:09;7.20;99.90
12901;DHT22;6518;50.930;5.344;2023-12-14T14:13:38;7.10;99.90
12901;DHT22;6518;50.930;5.344;2023-12-14T14:16:06;7.20;99.90
12901;DHT22;6518;50.930;5.344;2023-12-14T14:18:35;7.20;99.90
12901;DHT22;6518;50.930;5.344;2023-12-14T14:21:03;7.30;99.90
12901;DHT22;6518;50.930;5.344;2023-12-14T14:23:33;7.30;99.90
12901;DHT22;6518;50.930;5.344;2023-12-14T14:26:00;7.40;99.90
12901;DHT22;6518;50.930;5.344;2023-12-14T14:28:27;7.40;99.90
12901;DHT22;6518;50.930;5.344;2023-12-14T14:30:54;7.50;99.90
12901;DHT22;6518;50.930;5.344;2023-12-14T14:33:21;7.50;99.90
12901;DHT22;6518;50.930;5.344;2023-12-14T14:35:50;7.50;99.90
12901;DHT22;6518;50.930;5.344;2023-12-14T14:38:18;7.40;99.90
12901;DHT22;6518;50.930;5.344;2023-12-14T14:40:46;7.40;99.90
12901;DHT22;6518;50.930;5.344;2023-12-14T14:43:12;7.40;99.90
12901;DHT22;6518;50.930;5.344;2023-12-14T14:45:39;7.30;99.90
12901;DHT22;6518;50.930;5.344;2023-12-14T14:48:06;7.30;99.90
12901;DHT22;6518;50.930;5.344;2023-12-14T14:50:34;7.30;99.90
12901;DHT22;6518;50.930;5.344;2023-12-14T14:53:03;7.40;99.90
12901;DHT22;6518;50.930;5.344;2023-12-14T14:55:31;7.40;99.90
12901;DHT22;6518;50.930;5.344;2023-12-14T14:57:58;7.40;99.90
12901;DHT22;6518;50.930;5.344;2023-12-14T15:00:25;7.50;99.90
12901;DHT22;6518;50.930;5.344;2023-12-14T15:02:53;7.50;99.90
12901;DHT22;6518;50.930;5.344;2023-12-14T15:05:20;7.50;99.90
12901;DHT22;6518;50.930;5.344;2023-12-14T15:07:47;7.50;99.90
12901;DHT22;6518;50.930;5.344;2023-12-14T15:10:15;7.60;99.90
12901;DHT22;6518;50.930;5.344;2023-12-14T15:12:43;7.60;99.90
12901;DHT22;6518;50.930;5.344;2023-12-14T15:15:10;7.60;99.90
12901;DHT22;6518;50.930;5.344;2023-12-14T15:17:37;7.60;99.90
12901;DHT22;6518;50.930;5.344;2023-12-14T15:20:04;7.60;99.90
12901;DHT22;6518;50.930;5.344;2023-12-14T15:22:32;7.50;99.90
12901;DHT22;6518;50.930;5.344;2023-12-14T15:24:58;7.50;99.90
12901;DHT22;6518;50.930;5.344;2023-12-14T15:27:27;7.50;99.90
12901;DHT22;6518;50.930;5.344;2023-12-14T15:29:56;7.50;99.90
12901;DHT22;6518;50.930;5.344;2023-12-14T15:32:24;7.40;99.90
12901;DHT22;6518;50.930;5.344;2023-12-14T15:34:51;7.50;99.90
12901;DHT22;6518;50.930;5.344;2023-12-14T15:37:18;7.50;99.90
12901;DHT22;6518;50.930;5.344;2023-12-14T15:39:45;7.50;99.90
12901;DHT22;6518;50.930;5.344;2023-12-14T15:42:14;7.60;99.90
12901;DHT22;6518;50.930;5.344;2023-12-14T15:44:43;7.50;99.90
12901;DHT22;6518;50.930;5.344;2023-12-14T15:47:11;7.60;99.90
12901;DHT22;6518;50.930;5.344;2023-12-14T15:49:37;7.60;99.90
12901;DHT22;6518;50.930;5.344;2023-12-14T15:52:04;7.60;99.90
12901;DHT22;6518;50.930;5.344;2023-12-14T15:54:32;7.50;99.90
12901;DHT22;6518;50.930;5.344;2023-12-14T15:57:00;7.50;99.90
12901;DHT22;6518;50.930;5.344;2023-12-14T15:59:27;7.40;99.90
12901;DHT22;6518;50.930;5.344;2023-12-14T16:01:56;7.40;99.90
12901;DHT22;6518;50.930;5.344;2023-12-14T16:04:24;7.30;99.90
12901;DHT22;6518;50.930;5.344;2023-12-14T16:06:51;7.30;99.90